sensor_id;sensor_type;location;lat;lon;timestamp;pressure;altitude;pressure_sealevel;temperature;humidity
65131;BME280;51709;54.912;8.316;2023-05-21T00:05:11;102350.03;;;12.89;49.61
65131;BME280;51709;54.912;8.316;2023-05-21T00:10:34;102350.03;;;12.87;49.98
65131;BME280;51709;54.912;8.316;2023-05-21T00:15:55;102335.41;;;12.89;50.22
65131;BME280;51709;54.912;8.316;2023-05-21T00:21:16;102331.16;;;12.84;50.41
65131;BME280;51709;54.912;8.316;2023-05-21T00:26:37;102332.06;;;12.73;50.57
65131;BME280;51709;54.912;8.316;2023-05-21T00:31:57;102324.41;;;12.61;50.67
65131;BME280;51709;54.912;8.316;2023-05-21T00:37:18;102321.03;;;12.49;50.93
65131;BME280;51709;54.912;8.316;2023-05-21T00:42:39;102321.09;;;12.42;51.20
65131;BME280;51709;54.912;8.316;2023-05-21T00:48:01;102322.00;;;12.31;51.54
65131;BME280;51709;54.912;8.316;2023-05-21T00:53:23;102323.75;;;12.23;51.49
65131;BME280;51709;54.912;8.316;2023-05-21T00:58:44;102314.34;;;12.16;51.69
65131;BME280;51709;54.912;8.316;2023-05-21T01:04:05;102310.06;;;12.13;51.84
65131;BME280;51709;54.912;8.316;2023-05-21T01:09:26;102298.06;;;12.11;52.08
65131;BME280;51709;54.912;8.316;2023-05-21T01:14:48;102298.06;;;12.11;52.00
65131;BME280;51709;54.912;8.316;2023-05-21T01:20:09;102296.38;;;12.05;52.23
65131;BME280;51709;54.912;8.316;2023-05-21T01:25:30;102295.53;;;11.98;52.37
65131;BME280;51709;54.912;8.316;2023-05-21T01:30:51;102285.22;;;11.94;52.60
65131;BME280;51709;54.912;8.316;2023-05-21T01:36:20;102284.38;;;11.90;52.66
65131;BME280;51709;54.912;8.316;2023-05-21T01:41:44;102276.69;;;11.85;52.82
65131;BME280;51709;54.912;8.316;2023-05-21T01:47:06;102269.81;;;11.83;52.94
65131;BME280;51709;54.912;8.316;2023-05-21T01:52:26;102269.81;;;11.83;52.96
65131;BME280;51709;54.912;8.316;2023-05-21T01:57:47;102264.69;;;11.81;53.07
65131;BME280;51709;54.912;8.316;2023-05-21T02:03:07;102264.66;;;11.83;53.23
65131;BME280;51709;54.912;8.316;2023-05-21T02:08:28;102258.66;;;11.87;53.32
65131;BME280;51709;54.912;8.316;2023-05-21T02:13:51;102261.22;;;11.93;53.23
65131;BME280;51709;54.912;8.316;2023-05-21T02:19:12;102262.91;;;11.97;53.29
65131;BME280;51709;54.912;8.316;2023-05-21T02:24:32;102252.66;;;11.99;53.35
65131;BME280;51709;54.912;8.316;2023-05-21T02:29:53;102257.78;;;12.00;53.16
65131;BME280;51709;54.912;8.316;2023-05-21T02:35:16;102259.50;;;12.01;53.31
65131;BME280;51709;54.912;8.316;2023-05-21T02:40:37;102240.63;;;12.02;53.31
65131;BME280;51709;54.912;8.316;2023-05-21T02:45:58;102242.31;;;12.05;53.41
65131;BME280;51709;54.912;8.316;2023-05-21T02:51:20;102235.47;;;12.10;53.31
65131;BME280;51709;54.912;8.316;2023-05-21T02:56:41;102227.69;;;12.13;53.23
65131;BME280;51709;54.912;8.316;2023-05-21T03:02:02;102232.81;;;12.18;53.38
65131;BME280;51709;54.912;8.316;2023-05-21T03:07:22;102219.06;;;12.22;53.27
65131;BME280;51709;54.912;8.316;2023-05-21T03:12:43;102214.75;;;12.26;53.15
65131;BME280;51709;54.912;8.316;2023-05-21T03:18:04;102202.72;;;12.29;53.24
65131;BME280;51709;54.912;8.316;2023-05-21T03:23:25;102204.44;;;12.32;53.21
65131;BME280;51709;54.912;8.316;2023-05-21T03:28:46;102204.41;;;12.35;53.43
65131;BME280;51709;54.912;8.316;2023-05-21T03:34:08;102209.53;;;12.38;53.49
65131;BME280;51709;54.912;8.316;2023-05-21T03:39:29;102209.56;;;12.40;53.49
65131;BME280;51709;54.912;8.316;2023-05-21T03:44:51;102210.38;;;12.40;53.67
65131;BME280;51709;54.912;8.316;2023-05-21T03:50:43;102205.22;;;12.43;53.67
65131;BME280;51709;54.912;8.316;2023-05-21T03:56:04;102211.19;;;12.48;53.70
65131;BME280;51709;54.912;8.316;2023-05-21T04:01:25;102209.41;;;12.55;53.77
65131;BME280;51709;54.912;8.316;2023-05-21T04:06:49;102205.09;;;12.63;53.89
65131;BME280;51709;54.912;8.316;2023-05-21T04:12:10;102205.91;;;12.67;53.90
65131;BME280;51709;54.912;8.316;2023-05-21T04:17:31;102205.88;;;12.70;53.85
65131;BME280;51709;54.912;8.316;2023-05-21T04:22:52;102200.72;;;12.72;53.95
65131;BME280;51709;54.912;8.316;2023-05-21T04:28:13;102199.00;;;12.74;54.00
65131;BME280;51709;54.912;8.316;2023-05-21T04:33:40;102205.81;;;12.78;53.96
65131;BME280;51709;54.912;8.316;2023-05-21T04:39:01;102195.50;;;12.81;53.90
65131;BME280;51709;54.912;8.316;2023-05-21T04:44:22;102200.63;;;12.84;53.90
65131;BME280;51709;54.912;8.316;2023-05-21T04:49:43;102197.97;;;12.92;53.80
65131;BME280;51709;54.912;8.316;2023-05-21T04:55:06;102202.19;;;12.99;53.82
65131;BME280;51709;54.912;8.316;2023-05-21T05:00:27;102194.41;;;13.07;53.77
65131;BME280;51709;54.912;8.316;2023-05-21T05:05:47;102192.59;;;13.17;53.74
65131;BME280;51709;54.912;8.316;2023-05-21T05:11:08;102183.94;;;13.21;53.80
65131;BME280;51709;54.912;8.316;2023-05-21T05:16:29;102174.44;;;13.26;53.76
65131;BME280;51709;54.912;8.316;2023-05-21T05:21:50;102166.56;;;13.37;53.72
65131;BME280;51709;54.912;8.316;2023-05-21T05:27:12;102157.94;;;13.44;53.57
65131;BME280;51709;54.912;8.316;2023-05-21T05:32:32;102162.06;;;13.59;53.35
65131;BME280;51709;54.912;8.316;2023-05-21T05:37:53;102162.66;;;13.80;53.21
65131;BME280;51709;54.912;8.316;2023-05-21T05:43:14;102172.72;;;14.00;52.87
65131;BME280;51709;54.912;8.316;2023-05-21T05:48:35;102164.63;;;14.25;52.60
65131;BME280;51709;54.912;8.316;2023-05-21T05:53:56;102163.28;;;14.55;52.26
65131;BME280;51709;54.912;8.316;2023-05-21T05:59:17;102170.81;;;14.69;52.15
65131;BME280;51709;54.912;8.316;2023-05-21T06:04:41;102171.63;;;14.74;52.37
65131;BME280;51709;54.912;8.316;2023-05-21T06:10:02;102165.56;;;14.75;52.26
65131;BME280;51709;54.912;8.316;2023-05-21T06:15:23;102168.75;;;14.90;52.57
65131;BME280;51709;54.912;8.316;2023-05-21T06:20:44;102169.47;;;14.97;52.57
65131;BME280;51709;54.912;8.316;2023-05-21T06:26:04;102164.19;;;15.04;52.58
65131;BME280;51709;54.912;8.316;2023-05-21T06:31:25;102166.41;;;15.23;52.39
65131;BME280;51709;54.912;8.316;2023-05-21T06:36:47;102173.09;;;15.35;52.36
65131;BME280;51709;54.912;8.316;2023-05-21T06:42:07;102158.94;;;15.53;52.17
65131;BME280;51709;54.912;8.316;2023-05-21T06:50:52;102157.00;;;16.04;51.40
65131;BME280;51709;54.912;8.316;2023-05-21T06:56:12;102154.63;;;16.30;51.25
65131;BME280;51709;54.912;8.316;2023-05-21T07:01:35;102154.88;;;16.57;50.91
65131;BME280;51709;54.912;8.316;2023-05-21T07:06:56;102154.34;;;16.77;50.73
65131;BME280;51709;54.912;8.316;2023-05-21T07:12:17;102152.66;;;16.76;50.86
65131;BME280;51709;54.912;8.316;2023-05-21T07:17:38;102145.63;;;16.80;50.63
65131;BME280;51709;54.912;8.316;2023-05-21T07:22:58;102150.53;;;17.24;50.04
65131;BME280;51709;54.912;8.316;2023-05-21T07:28:19;102154.81;;;17.56;49.48
65131;BME280;51709;54.912;8.316;2023-05-21T07:33:40;102160.19;;;17.80;49.19
65131;BME280;51709;54.912;8.316;2023-05-21T07:39:03;102154.88;;;18.12;48.91
65131;BME280;51709;54.912;8.316;2023-05-21T07:44:25;102151.34;;;18.41;48.59
65131;BME280;51709;54.912;8.316;2023-05-21T07:49:45;102158.69;;;18.55;48.31
65131;BME280;51709;54.912;8.316;2023-05-21T07:55:07;102161.81;;;18.65;48.29
65131;BME280;51709;54.912;8.316;2023-05-21T08:00:41;102156.78;;;18.60;48.19
65131;BME280;51709;54.912;8.316;2023-05-21T08:06:03;102162.59;;;18.42;48.85
65131;BME280;51709;54.912;8.316;2023-05-21T08:11:25;102161.50;;;18.22;49.14
65131;BME280;51709;54.912;8.316;2023-05-21T08:16:46;102153.75;;;18.21;49.17
65131;BME280;51709;54.912;8.316;2023-05-21T08:22:08;102144.91;;;18.26;49.25
65131;BME280;51709;54.912;8.316;2023-05-21T08:27:34;102152.38;;;18.36;49.29
65131;BME280;51709;54.912;8.316;2023-05-21T08:32:56;102155.28;;;18.53;48.86
65131;BME280;51709;54.912;8.316;2023-05-21T08:38:20;102167.50;;;18.76;48.81
65131;BME280;51709;54.912;8.316;2023-05-21T08:43:54;102147.03;;;18.92;48.61
65131;BME280;51709;54.912;8.316;2023-05-21T08:49:22;102154.28;;;19.08;48.54
65131;BME280;51709;54.912;8.316;2023-05-21T08:54:48;102150.06;;;19.29;48.27
65131;BME280;51709;54.912;8.316;2023-05-21T09:00:10;102148.81;;;19.63;47.73
65131;BME280;51709;54.912;8.316;2023-05-21T09:18:32;102150.19;;;20.59;46.93
65131;BME280;51709;54.912;8.316;2023-05-21T09:24:05;102150.50;;;20.72;46.99
65131;BME280;51709;54.912;8.316;2023-05-21T09:29:28;102152.22;;;20.73;47.20
65131;BME280;51709;54.912;8.316;2023-05-21T09:34:49;102153.28;;;20.90;46.83
65131;BME280;51709;54.912;8.316;2023-05-21T09:40:11;102141.03;;;21.30;46.40
65131;BME280;51709;54.912;8.316;2023-05-21T09:45:33;102152.16;;;21.74;45.64
65131;BME280;51709;54.912;8.316;2023-05-21T09:51:06;102136.47;;;22.28;44.83
65131;BME280;51709;54.912;8.316;2023-05-21T09:56:27;102135.13;;;22.72;44.66
65131;BME280;51709;54.912;8.316;2023-05-21T10:01:52;102145.59;;;23.05;44.12
65131;BME280;51709;54.912;8.316;2023-05-21T10:07:17;102129.94;;;23.21;44.09
65131;BME280;51709;54.912;8.316;2023-05-21T10:12:51;102121.97;;;23.71;43.09
65131;BME280;51709;54.912;8.316;2023-05-21T10:18:14;102131.59;;;23.87;43.32
65131;BME280;51709;54.912;8.316;2023-05-21T10:23:36;102116.78;;;24.02;42.95
65131;BME280;51709;54.912;8.316;2023-05-21T10:28:57;102113.66;;;24.25;42.72
65131;BME280;51709;54.912;8.316;2023-05-21T10:34:20;102107.16;;;25.05;41.83
65131;BME280;51709;54.912;8.316;2023-05-21T10:39:42;102096.34;;;26.32;40.08
65131;BME280;51709;54.912;8.316;2023-05-21T11:01:33;102088.06;;;27.63;38.87
65131;BME280;51709;54.912;8.316;2023-05-21T11:06:57;102085.59;;;28.20;37.86
65131;BME280;51709;54.912;8.316;2023-05-21T11:12:19;102079.38;;;28.32;37.66
65131;BME280;51709;54.912;8.316;2023-05-21T11:17:42;102087.00;;;28.12;38.24
65131;BME280;51709;54.912;8.316;2023-05-21T11:23:03;102074.59;;;27.90;38.38
65131;BME280;51709;54.912;8.316;2023-05-21T11:28:33;102071.59;;;27.59;38.87
65131;BME280;51709;54.912;8.316;2023-05-21T11:34:12;102068.16;;;26.97;39.71
65131;BME280;51709;54.912;8.316;2023-05-21T11:39:38;102062.91;;;27.70;38.56
65131;BME280;51709;54.912;8.316;2023-05-21T11:45:02;102056.34;;;28.80;37.29
65131;BME280;51709;54.912;8.316;2023-05-21T11:50:26;102063.75;;;29.30;36.41
65131;BME280;51709;54.912;8.316;2023-05-21T11:55:46;102067.50;;;28.83;37.30
65131;BME280;51709;54.912;8.316;2023-05-21T12:01:07;102064.94;;;29.70;36.22
65131;BME280;51709;54.912;8.316;2023-05-21T12:06:27;102069.50;;;29.89;35.98
65131;BME280;51709;54.912;8.316;2023-05-21T12:11:51;102058.47;;;28.86;37.35
65131;BME280;51709;54.912;8.316;2023-05-21T12:17:14;102062.56;;;28.22;38.47
65131;BME280;51709;54.912;8.316;2023-05-21T12:22:39;102054.59;;;27.63;39.43
65131;BME280;51709;54.912;8.316;2023-05-21T12:28:01;102053.31;;;28.16;38.48
65131;BME280;51709;54.912;8.316;2023-05-21T12:33:32;102042.00;;;28.03;38.55
65131;BME280;51709;54.912;8.316;2023-05-21T12:38:53;102059.69;;;28.36;38.07
65131;BME280;51709;54.912;8.316;2023-05-21T12:44:14;102057.88;;;29.38;36.48
65131;BME280;51709;54.912;8.316;2023-05-21T12:49:42;102044.03;;;29.01;37.16
65131;BME280;51709;54.912;8.316;2023-05-21T12:55:04;102047.44;;;28.69;37.81
65131;BME280;51709;54.912;8.316;2023-05-21T13:00:27;102042.19;;;29.13;37.06
65131;BME280;51709;54.912;8.316;2023-05-21T13:05:47;102038.28;;;29.29;37.01
65131;BME280;51709;54.912;8.316;2023-05-21T13:11:08;102039.84;;;28.99;37.42
65131;BME280;51709;54.912;8.316;2023-05-21T13:16:29;102033.53;;;28.56;38.06
65131;BME280;51709;54.912;8.316;2023-05-21T13:21:50;102029.41;;;28.86;37.42
65131;BME280;51709;54.912;8.316;2023-05-21T13:27:10;102024.00;;;28.76;37.57
65131;BME280;51709;54.912;8.316;2023-05-21T13:32:31;102016.31;;;28.84;37.41
65131;BME280;51709;54.912;8.316;2023-05-21T13:37:51;102022.22;;;29.20;37.03
65131;BME280;51709;54.912;8.316;2023-05-21T13:43:12;102014.22;;;28.99;37.30
65131;BME280;51709;54.912;8.316;2023-05-21T13:48:32;102019.00;;;28.73;37.70
65131;BME280;51709;54.912;8.316;2023-05-21T13:53:53;102010.44;;;28.58;37.94
65131;BME280;51709;54.912;8.316;2023-05-21T13:59:16;102014.75;;;28.70;37.76
65131;BME280;51709;54.912;8.316;2023-05-21T14:04:36;102012.59;;;28.64;37.87
65131;BME280;51709;54.912;8.316;2023-05-21T14:09:59;102006.50;;;28.41;38.18
65131;BME280;51709;54.912;8.316;2023-05-21T14:15:19;102006.63;;;28.39;37.94
65131;BME280;51709;54.912;8.316;2023-05-21T14:20:40;102010.72;;;28.43;37.74
65131;BME280;51709;54.912;8.316;2023-05-21T14:26:01;102001.44;;;27.92;38.63
65131;BME280;51709;54.912;8.316;2023-05-21T14:31:22;102009.06;;;27.37;39.25
65131;BME280;51709;54.912;8.316;2023-05-21T14:36:43;102006.50;;;27.00;39.66
65131;BME280;51709;54.912;8.316;2023-05-21T14:42:04;102006.75;;;26.71;39.94
65131;BME280;51709;54.912;8.316;2023-05-21T14:47:25;102003.47;;;26.43;40.13
65131;BME280;51709;54.912;8.316;2023-05-21T14:52:45;102002.72;;;26.54;40.40
65131;BME280;51709;54.912;8.316;2023-05-21T14:58:06;101996.56;;;26.66;40.26
65131;BME280;51709;54.912;8.316;2023-05-21T15:03:27;101986.44;;;26.86;39.97
65131;BME280;51709;54.912;8.316;2023-05-21T15:08:48;101989.28;;;27.31;39.48
65131;BME280;51709;54.912;8.316;2023-05-21T15:14:08;102001.06;;;27.74;38.88
65131;BME280;51709;54.912;8.316;2023-05-21T15:19:29;101988.00;;;29.08;37.77
65131;BME280;51709;54.912;8.316;2023-05-21T15:24:49;101987.09;;;28.97;38.38
65131;BME280;51709;54.912;8.316;2023-05-21T15:30:10;101979.88;;;28.10;39.56
65131;BME280;51709;54.912;8.316;2023-05-21T15:35:31;101973.28;;;28.38;38.99
65131;BME280;51709;54.912;8.316;2023-05-21T15:40:52;101980.00;;;29.94;36.98
65131;BME280;51709;54.912;8.316;2023-05-21T15:46:13;101978.09;;;29.75;36.91
65131;BME280;51709;54.912;8.316;2023-05-21T15:51:33;101968.28;;;28.79;38.39
65131;BME280;51709;54.912;8.316;2023-05-21T15:56:54;101971.25;;;28.19;38.82
65131;BME280;51709;54.912;8.316;2023-05-21T16:02:15;101968.09;;;27.91;39.08
65131;BME280;51709;54.912;8.316;2023-05-21T16:07:35;101968.88;;;28.71;37.82
65131;BME280;51709;54.912;8.316;2023-05-21T16:12:58;101959.31;;;29.03;37.04
65131;BME280;51709;54.912;8.316;2023-05-21T16:18:19;101958.09;;;28.74;37.55
65131;BME280;51709;54.912;8.316;2023-05-21T16:23:40;101966.16;;;29.38;36.99
65131;BME280;51709;54.912;8.316;2023-05-21T16:29:01;101960.22;;;28.92;37.65
65131;BME280;51709;54.912;8.316;2023-05-21T16:34:21;101965.59;;;28.35;38.68
65131;BME280;51709;54.912;8.316;2023-05-21T16:39:42;101949.25;;;27.73;39.12
65131;BME280;51709;54.912;8.316;2023-05-21T16:45:03;101949.34;;;27.72;38.94
65131;BME280;51709;54.912;8.316;2023-05-21T16:50:24;101948.53;;;27.35;39.30
65131;BME280;51709;54.912;8.316;2023-05-21T16:55:44;101941.22;;;26.55;40.49
65131;BME280;51709;54.912;8.316;2023-05-21T17:01:06;101946.56;;;25.90;41.62
65131;BME280;51709;54.912;8.316;2023-05-21T17:06:27;101945.63;;;25.38;42.37
65131;BME280;51709;54.912;8.316;2023-05-21T17:11:47;101938.91;;;24.93;42.77
65131;BME280;51709;54.912;8.316;2023-05-21T17:17:08;101936.53;;;24.61;43.08
65131;BME280;51709;54.912;8.316;2023-05-21T17:22:28;101936.88;;;24.28;43.48
65131;BME280;51709;54.912;8.316;2023-05-21T17:27:50;101926.59;;;24.10;44.02
65131;BME280;51709;54.912;8.316;2023-05-21T17:33:12;101939.31;;;24.02;44.01
65131;BME280;51709;54.912;8.316;2023-05-21T17:38:33;101927.94;;;23.87;44.15
65131;BME280;51709;54.912;8.316;2023-05-21T17:43:54;101929.72;;;23.72;44.35
65131;BME280;51709;54.912;8.316;2023-05-21T17:49:15;101922.38;;;23.48;45.10
65131;BME280;51709;54.912;8.316;2023-05-21T17:54:36;101924.94;;;23.18;45.55
65131;BME280;51709;54.912;8.316;2023-05-21T17:59:56;101919.59;;;22.89;46.11
65131;BME280;51709;54.912;8.316;2023-05-21T18:05:17;101926.28;;;22.62;46.45
65131;BME280;51709;54.912;8.316;2023-05-21T18:10:38;101927.09;;;22.47;46.64
65131;BME280;51709;54.912;8.316;2023-05-21T18:15:58;101925.97;;;22.35;47.05
65131;BME280;51709;54.912;8.316;2023-05-21T18:21:19;101918.63;;;22.26;47.38
65131;BME280;51709;54.912;8.316;2023-05-21T18:26:39;101918.03;;;22.21;47.58
65131;BME280;51709;54.912;8.316;2023-05-21T18:32:02;101923.50;;;22.16;47.87
65131;BME280;51709;54.912;8.316;2023-05-21T18:37:23;101925.94;;;22.03;48.28
65131;BME280;51709;54.912;8.316;2023-05-21T18:42:43;101923.03;;;21.92;48.65
65131;BME280;51709;54.912;8.316;2023-05-21T18:48:05;101925.66;;;21.74;49.18
65131;BME280;51709;54.912;8.316;2023-05-21T18:53:25;101926.25;;;21.44;49.83
65131;BME280;51709;54.912;8.316;2023-05-21T18:58:46;101925.13;;;21.13;50.02
65131;BME280;51709;54.912;8.316;2023-05-21T19:04:06;101921.25;;;20.85;50.80
65131;BME280;51709;54.912;8.316;2023-05-21T19:09:27;101916.28;;;20.60;51.22
65131;BME280;51709;54.912;8.316;2023-05-21T19:14:48;101916.38;;;20.39;51.59
65131;BME280;51709;54.912;8.316;2023-05-21T19:20:09;101923.47;;;20.16;51.97
65131;BME280;51709;54.912;8.316;2023-05-21T19:25:29;101919.97;;;19.97;52.16
65131;BME280;51709;54.912;8.316;2023-05-21T19:30:53;101929.25;;;19.82;52.58
65131;BME280;51709;54.912;8.316;2023-05-21T19:36:13;101935.19;;;19.65;52.92
65131;BME280;51709;54.912;8.316;2023-05-21T19:41:34;101941.03;;;19.49;53.29
65131;BME280;51709;54.912;8.316;2023-05-21T19:46:54;101945.25;;;19.31;53.58
65131;BME280;51709;54.912;8.316;2023-05-21T19:52:15;101946.72;;;19.16;54.12
65131;BME280;51709;54.912;8.316;2023-05-21T19:57:36;101946.50;;;18.99;54.38
65131;BME280;51709;54.912;8.316;2023-05-21T20:02:57;101941.81;;;18.85;54.90
65131;BME280;51709;54.912;8.316;2023-05-21T20:08:17;101948.44;;;18.70;55.07
65131;BME280;51709;54.912;8.316;2023-05-21T20:13:39;101945.50;;;18.55;55.59
65131;BME280;51709;54.912;8.316;2023-05-21T20:23:19;101943.72;;;18.33;55.77
65131;BME280;51709;54.912;8.316;2023-05-21T20:28:41;101936.19;;;18.26;55.99
65131;BME280;51709;54.912;8.316;2023-05-21T20:34:02;101944.25;;;18.18;56.49
65131;BME280;51709;54.912;8.316;2023-05-21T20:39:27;101939.47;;;18.06;56.52
65131;BME280;51709;54.912;8.316;2023-05-21T20:44:49;101943.44;;;17.91;56.90
65131;BME280;51709;54.912;8.316;2023-05-21T20:50:13;101942.00;;;17.82;57.13
65131;BME280;51709;54.912;8.316;2023-05-21T20:55:34;101942.25;;;17.74;57.26
65131;BME280;51709;54.912;8.316;2023-05-21T21:00:54;101945.25;;;17.62;57.41
65131;BME280;51709;54.912;8.316;2023-05-21T21:06:17;101943.91;;;17.50;57.72
65131;BME280;51709;54.912;8.316;2023-05-21T21:11:38;101951.19;;;17.38;57.80
65131;BME280;51709;54.912;8.316;2023-05-21T21:16:59;101955.72;;;17.32;58.21
65131;BME280;51709;54.912;8.316;2023-05-21T21:22:20;101959.47;;;17.23;58.30
65131;BME280;51709;54.912;8.316;2023-05-21T21:27:40;101952.78;;;17.16;58.61
65131;BME280;51709;54.912;8.316;2023-05-21T21:33:01;101948.72;;;17.07;58.62
65131;BME280;51709;54.912;8.316;2023-05-21T21:38:22;101949.75;;;17.01;58.78
65131;BME280;51709;54.912;8.316;2023-05-21T21:43:43;101959.44;;;16.94;58.97
65131;BME280;51709;54.912;8.316;2023-05-21T21:49:03;101944.94;;;16.87;59.44
65131;BME280;51709;54.912;8.316;2023-05-21T21:54:24;101948.56;;;16.82;59.33
65131;BME280;51709;54.912;8.316;2023-05-21T21:59:45;101953.78;;;16.80;59.83
65131;BME280;51709;54.912;8.316;2023-05-21T22:05:07;101950.50;;;16.75;59.82
65131;BME280;51709;54.912;8.316;2023-05-21T22:10:30;101963.56;;;16.70;60.06
65131;BME280;51709;54.912;8.316;2023-05-21T22:15:53;101951.63;;;16.64;60.23
65131;BME280;51709;54.912;8.316;2023-05-21T22:21:14;101948.41;;;16.58;60.35
65131;BME280;51709;54.912;8.316;2023-05-21T22:26:37;101948.50;;;16.53;60.56
65131;BME280;51709;54.912;8.316;2023-05-21T22:31:59;101936.53;;;16.49;60.98
65131;BME280;51709;54.912;8.316;2023-05-21T22:37:20;101936.63;;;16.46;60.74
65131;BME280;51709;54.912;8.316;2023-05-21T22:42:43;101927.22;;;16.42;60.98
65131;BME280;51709;54.912;8.316;2023-05-21T22:48:05;101930.81;;;16.38;61.54
65131;BME280;51709;54.912;8.316;2023-05-21T22:53:26;101923.13;;;16.35;61.50
65131;BME280;51709;54.912;8.316;2023-05-21T22:58:47;101924.91;;;16.32;61.50
65131;BME280;51709;54.912;8.316;2023-05-21T23:04:08;101917.19;;;16.29;61.97
65131;BME280;51709;54.912;8.316;2023-05-21T23:09:29;101913.84;;;16.26;62.20
65131;BME280;51709;54.912;8.316;2023-05-21T23:14:49;101907.91;;;16.22;62.25
65131;BME280;51709;54.912;8.316;2023-05-21T23:20:10;101901.13;;;16.18;62.60
65131;BME280;51709;54.912;8.316;2023-05-21T23:25:32;101902.13;;;16.12;62.76
65131;BME280;51709;54.912;8.316;2023-05-21T23:30:53;101897.06;;;16.09;63.06
65131;BME280;51709;54.912;8.316;2023-05-21T23:36:14;101883.31;;;16.06;63.04
65131;BME280;51709;54.912;8.316;2023-05-21T23:41:34;101886.78;;;16.06;63.30
65131;BME280;51709;54.912;8.316;2023-05-21T23:46:55;101882.53;;;16.04;63.40
65131;BME280;51709;54.912;8.316;2023-05-21T23:52:16;101873.97;;;16.01;63.68
65131;BME280;51709;54.912;8.316;2023-05-21T23:57:37;101873.97;;;16.01;63.80
